Time;durP1;ratioP1;P1;durP2;ratioP2;P2;SDS_P1;SDS_P2;PMS_P1;PMS_P2;Temp;Humidity;BMP_temperature;BMP_pressure;BME280_temperature;BME280_humidity;BME280_pressure;Samples;Min_cycle;Max_cycle;Signal;HPM_P1;HPM_P2
2023/08/23 00:01:18;;;;;;;9.85;5.50;;;;;;;19.71;71.55;99223.91;5020668;28;20025;-83
2023/08/23 00:03:43;;;;;;;9.43;4.60;;;;;;;19.67;71.21;99203.94;5008833;28;20052;-82
2023/08/23 00:06:08;;;;;;;14.15;5.78;;;;;;;19.80;71.17;99219.41;5011759;28;20048;-83
2023/08/23 00:08:33;;;;;;;6.97;4.43;;;;;;;19.76;71.07;99234.66;5022293;28;20041;-83
2023/08/23 00:10:59;;;;;;;5.32;4.80;;;;;;;19.78;71.21;99230.53;5026923;28;20034;-85
2023/08/23 00:13:24;;;;;;;11.30;5.18;;;;;;;19.91;70.64;99232.47;5022422;28;20044;-84
2023/08/23 00:15:50;;;;;;;8.05;5.03;;;;;;;19.75;70.72;99223.00;5026711;28;20110;-83
2023/08/23 00:18:15;;;;;;;12.95;5.13;;;;;;;19.77;70.73;99231.63;5027554;28;20076;-83
2023/08/23 00:20:41;;;;;;;11.00;4.75;;;;;;;19.87;70.75;99225.25;5009036;28;20036;-84
2023/08/23 00:23:06;;;;;;;8.77;5.07;;;;;;;19.64;71.37;99221.59;5028478;28;20034;-83
2023/08/23 00:25:31;;;;;;;8.70;5.28;;;;;;;19.76;71.21;99230.03;5011767;28;20121;-82
2023/08/23 00:27:57;;;;;;;10.30;5.50;;;;;;;19.69;71.35;99228.81;5030968;28;20969;-83
2023/08/23 00:30:22;;;;;;;9.43;4.35;;;;;;;19.64;70.86;99199.09;5032449;28;20377;-81
2023/08/23 00:32:48;;;;;;;9.13;4.40;;;;;;;19.49;71.70;99218.34;5030512;28;20033;-82
2023/08/23 00:35:13;;;;;;;9.07;4.85;;;;;;;19.57;71.40;99221.16;5032042;28;20030;-81
2023/08/23 00:37:38;;;;;;;8.85;5.32;;;;;;;19.57;71.56;99214.97;5032483;28;20056;-82
2023/08/23 00:40:06;;;;;;;10.52;5.07;;;;;;;19.64;71.17;99218.88;5014937;28;20042;-83
2023/08/23 00:42:32;;;;;;;5.25;4.57;;;;;;;19.67;70.81;99225.59;5031741;28;20062;-83
2023/08/23 00:44:57;;;;;;;8.40;4.82;;;;;;;19.56;71.05;99222.28;5033673;28;20033;-83
2023/08/23 00:47:23;;;;;;;8.80;5.82;;;;;;;19.45;71.22;99220.84;5030050;28;20052;-82
2023/08/23 00:49:48;;;;;;;5.97;4.68;;;;;;;19.61;70.90;99226.81;5024410;28;20033;-81
2023/08/23 00:52:15;;;;;;;6.72;5.05;;;;;;;19.54;71.19;99231.78;5009421;28;20029;-84
2023/08/23 00:54:41;;;;;;;11.90;5.22;;;;;;;19.63;70.86;99230.00;5014997;28;20033;-83
2023/08/23 00:57:07;;;;;;;6.88;4.97;;;;;;;19.53;70.99;99225.56;5030944;28;20048;-81
2023/08/23 00:59:33;;;;;;;8.25;5.28;;;;;;;19.46;71.02;99224.38;5031591;28;20049;-82
2023/08/23 01:01:58;;;;;;;11.95;5.03;;;;;;;19.50;71.16;99231.59;5012433;28;20397;-84
2023/08/23 01:04:23;;;;;;;10.45;5.28;;;;;;;19.46;71.20;99221.66;5036135;28;20037;-83
2023/08/23 01:07:01;;;;;;;6.07;4.70;;;;;;;19.43;71.38;99220.34;5009580;28;20116;-83
2023/08/23 01:09:33;;;;;;;12.88;5.43;;;;;;;19.33;72.12;99223.97;5031997;28;20095;-85
2023/08/23 01:12:10;;;;;;;6.93;4.82;;;;;;;19.38;71.54;99223.13;5032154;28;22357;-83
2023/08/23 01:14:39;;;;;;;5.35;4.70;;;;;;;19.28;71.92;99217.84;5033648;28;20033;-83
2023/08/23 01:17:06;;;;;;;6.50;5.03;;;;;;;19.37;71.46;99237.78;5025670;28;20508;-83
2023/08/23 01:19:34;;;;;;;11.38;5.70;;;;;;;19.36;71.88;99230.75;5032412;28;20037;-84
2023/08/23 01:22:03;;;;;;;12.48;5.82;;;;;;;19.34;71.62;99231.03;5032205;28;20490;-83
2023/08/23 01:24:28;;;;;;;10.07;5.32;;;;;;;19.33;72.12;99223.97;5033981;28;20044;-81
2023/08/23 01:26:54;;;;;;;10.85;5.60;;;;;;;19.27;72.45;99221.66;5037548;28;20030;-82
2023/08/23 01:29:19;;;;;;;8.20;5.47;;;;;;;19.32;72.10;99224.28;5036557;28;20394;-81
2023/08/23 01:31:47;;;;;;;9.25;5.50;;;;;;;19.18;72.22;99218.81;5030333;28;20053;-84
2023/08/23 01:34:32;;;;;;;8.40;5.90;;;;;;;19.14;72.91;99222.41;5007033;28;20044;-85
2023/08/23 01:37:01;;;;;;;6.95;5.45;;;;;;;19.16;72.54;99221.00;5029880;28;20037;-82
2023/08/23 01:39:26;;;;;;;8.63;5.60;;;;;;;19.06;72.34;99206.84;5033091;28;20033;-85
2023/08/23 01:41:53;;;;;;;9.52;5.70;;;;;;;19.03;72.53;99210.94;5029051;28;20406;-83
2023/08/23 01:44:19;;;;;;;8.95;5.20;;;;;;;19.05;71.93;99200.63;5030892;28;20041;-84
2023/08/23 01:46:44;;;;;;;10.27;5.13;;;;;;;18.97;71.95;99198.59;5014799;28;20030;-84
2023/08/23 01:49:10;;;;;;;9.00;5.97;;;;;;;19.12;71.91;99211.88;5030110;28;20056;-85
2023/08/23 01:51:35;;;;;;;5.28;4.70;;;;;;;19.06;72.32;99204.94;5029312;28;20030;-85
2023/08/23 01:54:00;;;;;;;6.88;5.32;;;;;;;18.96;72.53;99205.09;5012775;28;20026;-84
2023/08/23 01:56:26;;;;;;;5.75;5.15;;;;;;;18.99;72.18;99214.53;5012232;28;20125;-84
2023/08/23 01:58:51;;;;;;;7.57;5.68;;;;;;;18.97;72.06;99197.78;5026376;28;20143;-85
2023/08/23 02:01:16;;;;;;;7.32;5.75;;;;;;;18.96;72.05;99215.91;5027355;28;20042;-83
2023/08/23 02:03:42;;;;;;;8.45;5.68;;;;;;;18.92;71.98;99198.66;5029069;28;20033;-84
2023/08/23 02:06:07;;;;;;;11.38;6.72;;;;;;;18.89;72.29;99215.50;5030699;28;20035;-84
2023/08/23 02:08:34;;;;;;;8.45;5.38;;;;;;;18.91;72.30;99226.03;5032796;28;20029;-83
2023/08/23 02:11:00;;;;;;;7.13;5.30;;;;;;;18.91;72.65;99218.72;5029524;28;20040;-84
2023/08/23 02:13:25;;;;;;;8.68;6.03;;;;;;;18.72;72.58;99211.69;5033513;28;20037;-83
2023/08/23 02:15:50;;;;;;;7.07;6.18;;;;;;;18.87;72.05;99217.66;5010881;28;20034;-83
2023/08/23 02:18:16;;;;;;;8.32;5.38;;;;;;;18.72;72.84;99207.06;5013227;28;20030;-83
2023/08/23 02:20:41;;;;;;;9.57;6.28;;;;;;;18.72;72.45;99209.78;5023584;28;20036;-84
2023/08/23 02:23:07;;;;;;;10.55;6.18;;;;;;;18.70;71.87;99206.56;5013431;28;20041;-83
2023/08/23 02:25:32;;;;;;;6.45;5.50;;;;;;;18.76;72.19;99210.81;5025431;28;20164;-84
2023/08/23 02:27:57;;;;;;;9.90;5.30;;;;;;;18.76;72.43;99210.81;4995838;28;20037;-83
2023/08/23 02:30:23;;;;;;;7.47;5.13;;;;;;;18.68;72.36;99201.47;5017530;28;20496;-81
2023/08/23 02:32:48;;;;;;;17.63;7.32;;;;;;;18.67;72.90;99212.56;5029493;28;20029;-82
2023/08/23 02:35:14;;;;;;;9.65;6.55;;;;;;;18.69;72.67;99205.78;5025684;28;20064;-80
2023/08/23 02:37:39;;;;;;;11.30;7.40;;;;;;;18.64;72.50;99211.25;5025615;28;20472;-81
2023/08/23 02:40:05;;;;;;;9.73;7.95;;;;;;;18.61;72.83;99208.31;5031209;28;20033;-82
2023/08/23 02:42:30;;;;;;;14.75;7.70;;;;;;;18.62;72.88;99220.75;5029664;28;20036;-80
2023/08/23 02:44:56;;;;;;;12.18;7.28;;;;;;;18.62;72.71;99204.53;5027619;28;20042;-82
2023/08/23 02:47:21;;;;;;;11.45;7.28;;;;;;;18.57;72.70;99207.28;5027205;28;20033;-82
2023/08/23 02:49:46;;;;;;;11.15;7.57;;;;;;;18.48;72.86;99199.03;5027656;28;20046;-85
2023/08/23 02:52:12;;;;;;;8.73;7.07;;;;;;;18.55;72.87;99198.66;4994068;28;20458;-85
2023/08/23 02:54:37;;;;;;;12.38;7.28;;;;;;;18.42;72.77;99188.53;5007837;28;20060;-81
2023/08/23 02:57:03;;;;;;;11.82;7.88;;;;;;;18.55;72.61;99199.47;5029871;28;20075;-83
2023/08/23 02:59:29;;;;;;;8.20;6.80;;;;;;;18.55;72.60;99206.78;5015855;28;20033;-84
2023/08/23 03:01:54;;;;;;;13.70;7.30;;;;;;;18.41;72.39;99193.13;5030226;28;20025;-84
2023/08/23 03:04:19;;;;;;;8.00;6.70;;;;;;;18.31;72.28;99176.25;5015580;28;20119;-84
2023/08/23 03:06:45;;;;;;;9.73;7.55;;;;;;;18.34;72.51;99191.91;5032766;28;20037;-84
2023/08/23 03:09:10;;;;;;;9.70;7.18;;;;;;;18.40;72.69;99196.16;4998686;28;20029;-83
2023/08/23 03:11:35;;;;;;;11.13;7.78;;;;;;;18.38;72.23;99192.94;5032549;28;20040;-82
2023/08/23 03:14:00;;;;;;;12.85;7.78;;;;;;;18.41;72.58;99197.78;5029075;28;20029;-81
2023/08/23 03:16:26;;;;;;;12.90;8.05;;;;;;;18.43;72.40;99198.28;5031959;28;20037;-83
2023/08/23 03:18:51;;;;;;;8.98;7.20;;;;;;;18.35;72.51;99201.59;5034408;28;20029;-84
2023/08/23 03:21:16;;;;;;;11.52;8.02;;;;;;;18.27;72.48;99197.66;5035463;28;20042;-84
2023/08/23 03:23:42;;;;;;;12.93;7.13;;;;;;;18.24;72.76;99186.66;5018543;28;20029;-84
2023/08/23 03:26:07;;;;;;;12.10;7.80;;;;;;;18.30;72.85;99204.41;5029048;28;20088;-83
2023/08/23 03:28:32;;;;;;;9.93;8.48;;;;;;;18.29;72.49;99202.78;5033354;28;20067;-84
2023/08/23 03:31:04;;;;;;;12.73;9.32;;;;;;;18.26;72.72;99197.97;4995380;28;20124;-85
2023/08/23 03:33:30;;;;;;;10.95;7.80;;;;;;;18.17;72.55;99194.28;5028046;28;20037;-83
2023/08/23 03:35:55;;;;;;;11.45;8.45;;;;;;;18.22;72.31;99195.03;5026412;28;20460;-83
2023/08/23 03:38:21;;;;;;;17.08;8.93;;;;;;;18.16;73.21;99206.19;5032016;28;20029;-84
2023/08/23 03:40:46;;;;;;;10.52;7.28;;;;;;;18.22;72.95;99195.03;4996240;28;20455;-84
2023/08/23 03:43:11;;;;;;;10.25;8.23;;;;;;;18.19;72.89;99190.22;5013586;28;20045;-84
2023/08/23 03:45:37;;;;;;;12.23;8.85;;;;;;;18.24;72.45;99192.84;5015631;28;20064;-84
2023/08/23 03:48:05;;;;;;;12.80;7.72;;;;;;;18.05;72.87;99183.88;5011826;28;20397;-84
2023/08/23 03:50:30;;;;;;;9.50;8.48;;;;;;;18.06;73.03;99190.91;5015237;28;20429;-83
2023/08/23 03:52:55;;;;;;;10.90;8.27;;;;;;;18.12;73.13;99183.53;4998847;28;20116;-85
2023/08/23 03:55:21;;;;;;;9.10;8.20;;;;;;;18.01;72.72;99180.16;5013375;28;20179;-83
2023/08/23 03:57:46;;;;;;;10.32;8.32;;;;;;;17.88;72.76;99176.25;5012053;28;20496;-84
2023/08/23 04:00:12;;;;;;;13.07;8.85;;;;;;;17.85;73.59;99176.03;5029005;28;20045;-86
2023/08/23 04:02:38;;;;;;;11.18;7.78;;;;;;;17.88;73.15;99178.16;5031484;28;20104;-84
2023/08/23 04:05:06;;;;;;;9.70;7.72;;;;;;;17.99;72.48;99193.16;5028251;28;20155;-84
2023/08/23 04:07:31;;;;;;;13.57;8.57;;;;;;;18.04;73.04;99198.50;5024528;28;20139;-84
2023/08/23 04:09:56;;;;;;;13.32;8.55;;;;;;;18.04;72.98;99201.22;5029271;28;20136;-85
2023/08/23 04:12:22;;;;;;;14.18;8.73;;;;;;;18.04;72.34;99200.41;5029914;28;20045;-80
2023/08/23 04:14:47;;;;;;;11.80;8.90;;;;;;;18.06;72.28;99201.72;5026137;28;20059;-80
2023/08/23 04:17:13;;;;;;;15.93;8.32;;;;;;;17.97;72.66;99198.81;5025775;28;20037;-79
2023/08/23 04:19:38;;;;;;;10.70;8.60;;;;;;;17.93;72.74;99202.41;5028015;28;20025;-79
2023/08/23 04:22:04;;;;;;;13.07;9.85;;;;;;;17.80;73.93;99203.09;5024785;28;20108;-79
2023/08/23 04:24:29;;;;;;;12.68;9.68;;;;;;;17.86;73.51;99204.66;5023089;28;20037;-80
2023/08/23 04:26:55;;;;;;;15.20;10.82;;;;;;;17.79;73.25;99201.47;5032097;28;20025;-80
2023/08/23 04:29:20;;;;;;;15.15;10.35;;;;;;;17.82;73.47;99203.63;5028378;28;20026;-80
2023/08/23 04:31:45;;;;;;;14.30;10.02;;;;;;;17.73;73.71;99199.94;5034532;28;20080;-81
2023/08/23 04:34:10;;;;;;;13.43;9.10;;;;;;;17.75;73.33;99203.16;5034132;28;20030;-82
2023/08/23 04:36:36;;;;;;;12.13;9.55;;;;;;;17.78;73.46;99205.25;5033909;28;20116;-81
2023/08/23 04:39:01;;;;;;;10.38;8.68;;;;;;;17.71;73.14;99191.31;5033453;28;20048;-79
2023/08/23 04:41:27;;;;;;;12.10;9.85;;;;;;;17.86;72.59;99210.06;5028361;28;20125;-78
2023/08/23 04:43:52;;;;;;;12.20;9.30;;;;;;;17.77;73.37;99203.66;5028628;28;20032;-80
2023/08/23 04:46:17;;;;;;;19.05;10.40;;;;;;;17.78;73.28;99208.75;5027706;28;20056;-80
2023/08/23 04:48:43;;;;;;;11.63;10.10;;;;;;;17.66;73.77;99205.66;5036891;28;20410;-79
2023/08/23 04:51:09;;;;;;;11.23;10.10;;;;;;;17.76;73.33;99207.44;5035717;28;20052;-82
2023/08/23 04:53:34;;;;;;;14.10;11.50;;;;;;;17.63;74.28;99208.94;5026360;28;20037;-79
2023/08/23 04:56:00;;;;;;;14.27;10.57;;;;;;;17.59;74.77;99207.88;5021629;28;20037;-79
2023/08/23 04:58:31;;;;;;;17.77;10.82;;;;;;;17.53;74.62;99202.81;5032633;28;20120;-79
2023/08/23 05:01:04;;;;;;;11.95;10.75;;;;;;;17.38;75.66;99201.06;5034491;28;20097;-80
2023/08/23 05:03:35;;;;;;;14.90;9.80;;;;;;;17.29;75.87;99199.25;5036460;28;20025;-80
2023/08/23 05:06:02;;;;;;;13.88;10.20;;;;;;;17.31;76.08;99205.16;5037657;28;20112;-80
2023/08/23 05:08:29;;;;;;;16.08;9.23;;;;;;;17.31;75.97;99205.16;5035496;28;20544;-82
2023/08/23 05:10:55;;;;;;;14.10;9.25;;;;;;;17.27;75.59;99199.53;5037001;28;20033;-81
2023/08/23 05:13:22;;;;;;;11.32;9.82;;;;;;;17.30;75.97;99203.56;5038643;28;20040;-81
2023/08/23 05:15:54;;;;;;;11.50;8.98;;;;;;;17.28;76.46;99201.13;5034804;28;20056;-80
2023/08/23 05:18:20;;;;;;;10.40;8.65;;;;;;;17.36;76.54;99203.22;5037671;28;20034;-81
2023/08/23 05:20:46;;;;;;;10.25;8.73;;;;;;;17.54;76.38;99217.94;5039324;28;20029;-80
2023/08/23 05:23:11;;;;;;;11.43;9.00;;;;;;;17.54;76.45;99216.03;5030670;28;20026;-85
2023/08/23 05:25:39;;;;;;;14.00;9.63;;;;;;;17.58;76.00;99211.66;5039876;28;20033;-83
2023/08/23 05:28:05;;;;;;;15.95;11.88;;;;;;;17.67;76.18;99219.97;5030068;28;20034;-84
2023/08/23 05:30:31;;;;;;;13.13;11.63;;;;;;;17.72;75.76;99217.22;5031504;28;20044;-81
2023/08/23 05:32:57;;;;;;;17.50;13.32;;;;;;;17.67;76.49;99219.97;5047575;28;20036;-80
2023/08/23 05:35:22;;;;;;;15.50;11.80;;;;;;;17.77;76.57;99220.66;5035476;28;20033;-82
2023/08/23 05:37:48;;;;;;;15.20;12.13;;;;;;;17.77;76.95;99211.75;5035462;28;20406;-82
2023/08/23 05:40:13;;;;;;;12.93;11.60;;;;;;;17.77;76.95;99225.25;5034972;28;20029;-80
2023/08/23 05:42:38;;;;;;;15.50;10.50;;;;;;;17.71;77.40;99232.59;5038704;28;20471;-81
2023/08/23 05:45:04;;;;;;;15.65;11.60;;;;;;;17.76;77.40;99229.84;5036809;28;20030;-80
2023/08/23 05:47:30;;;;;;;20.95;11.48;;;;;;;17.79;77.26;99225.78;5037874;28;20037;-80
2023/08/23 05:49:55;;;;;;;16.20;9.95;;;;;;;17.87;77.76;99235.94;5039975;28;20319;-82
2023/08/23 05:52:21;;;;;;;22.45;13.68;;;;;;;17.59;78.42;99229.50;5040952;28;20041;-81
2023/08/23 05:54:46;;;;;;;18.05;13.35;;;;;;;17.56;79.49;99234.66;5042365;28;20026;-81
2023/08/23 05:57:12;;;;;;;11.57;10.38;;;;;;;17.74;78.60;99239.31;5039213;28;20034;-82
2023/08/23 05:59:37;;;;;;;19.08;10.48;;;;;;;17.95;77.89;99235.34;5040706;28;20040;-81
2023/08/23 06:02:02;;;;;;;12.60;11.25;;;;;;;17.97;78.50;99241.25;5021784;28;20029;-81
2023/08/23 06:04:31;;;;;;;11.85;10.40;;;;;;;17.94;78.45;99228.31;5039619;28;20112;-79
2023/08/23 06:06:57;;;;;;;15.90;10.55;;;;;;;17.80;79.54;99247.09;5036321;28;20033;-79
2023/08/23 06:09:22;;;;;;;14.85;13.32;;;;;;;17.64;79.64;99245.66;5039127;28;20052;-81
2023/08/23 06:11:48;;;;;;;18.02;13.43;;;;;;;17.53;81.86;99252.22;5042189;28;20029;-79
2023/08/23 06:14:19;;;;;;;13.32;10.65;;;;;;;17.84;79.44;99250.81;5038608;28;20418;-82
2023/08/23 06:16:47;;;;;;;12.30;9.55;;;;;;;17.68;81.00;99252.06;5036476;28;20048;-85
2023/08/23 06:19:12;;;;;;;17.83;11.30;;;;;;;17.56;82.03;99248.94;5029825;28;20025;-81
2023/08/23 06:21:40;;;;;;;21.77;14.68;;;;;;;17.36;84.47;99245.59;5024639;28;20112;-82
2023/08/23 06:24:05;;;;;;;22.85;15.55;;;;;;;17.20;86.44;99245.72;5030595;28;20401;-81
2023/08/23 06:26:31;;;;;;;32.42;16.77;;;;;;;16.96;88.41;99244.81;5029174;28;20026;-80
2023/08/23 06:28:56;;;;;;;12.48;10.00;;;;;;;17.40;83.74;99252.84;5031656;28;20036;-80
2023/08/23 06:31:21;;;;;;;11.82;9.40;;;;;;;18.05;80.42;99256.03;5034314;28;20093;-81
2023/08/23 06:33:47;;;;;;;13.77;9.70;;;;;;;18.16;79.96;99242.13;5036062;28;20033;-80
2023/08/23 06:36:12;;;;;;;25.67;16.50;;;;;;;17.91;81.12;99261.28;5038376;28;20032;-80
2023/08/23 06:38:40;;;;;;;15.63;10.70;;;;;;;17.90;82.16;99257.00;5038025;28;20113;-81
2023/08/23 06:41:05;;;;;;;14.57;10.98;;;;;;;18.26;79.26;99244.69;5032219;28;20042;-80
2023/08/23 06:43:31;;;;;;;15.05;10.85;;;;;;;18.25;80.07;99250.38;5031246;28;20038;-80
2023/08/23 06:45:56;;;;;;;25.35;17.48;;;;;;;17.97;82.84;99260.94;5027538;28;20049;-79
2023/08/23 06:48:21;;;;;;;21.67;18.73;;;;;;;17.71;85.51;99264.22;5037104;28;20100;-79
2023/08/23 06:50:47;;;;;;;15.57;9.95;;;;;;;18.34;79.98;99254.06;5031800;28;20076;-80
2023/08/23 06:53:12;;;;;;;24.90;15.75;;;;;;;18.28;80.91;99249.81;5025331;28;20064;-81
2023/08/23 06:55:41;;;;;;;14.27;11.43;;;;;;;18.53;79.12;99244.13;5032478;28;20037;-81
2023/08/23 06:58:07;;;;;;;15.02;10.10;;;;;;;18.47;79.35;99245.28;5031919;28;20101;-78
2023/08/23 07:00:34;;;;;;;14.00;11.10;;;;;;;18.54;79.48;99256.56;5032278;28;20060;-79
2023/08/23 07:02:59;;;;;;;15.45;11.20;;;;;;;18.48;80.69;99253.09;5026891;28;20044;-82
2023/08/23 07:05:25;;;;;;;10.98;8.77;;;;;;;18.88;77.69;99240.94;5038874;28;20038;-83
2023/08/23 07:08:14;;;;;;;11.23;8.15;;;;;;;18.94;77.32;99253.28;5035761;28;20060;-83
2023/08/23 07:13:39;;;;;;;77.63;17.03;;;;;;;18.77;79.63;99254.88;5033807;28;20048;-84
2023/08/23 07:16:10;;;;;;;8.77;7.32;;;;;;;19.07;78.15;99240.91;5032743;28;20052;-88
2023/08/23 07:18:37;;;;;;;35.35;12.07;;;;;;;18.96;79.05;99237.56;5028613;28;20034;-84
2023/08/23 07:21:05;;;;;;;27.40;10.73;;;;;;;18.87;79.19;99228.50;5030220;28;20029;-85
2023/08/23 07:23:30;;;;;;;22.05;9.40;;;;;;;19.03;78.58;99229.06;5016408;28;20501;-84
2023/08/23 07:25:56;;;;;;;43.13;18.52;;;;;;;18.64;82.45;99224.78;5010792;28;20038;-84
2023/08/23 07:28:24;;;;;;;27.48;15.75;;;;;;;18.82;82.23;99230.47;5045958;28;20026;-84
2023/08/23 07:30:58;;;;;;;37.95;18.73;;;;;;;18.53;84.99;99236.00;5030340;28;20029;-84
2023/08/23 07:33:25;;;;;;;32.20;20.73;;;;;;;18.50;85.95;99253.63;5021236;28;20036;-78
2023/08/23 07:35:58;;;;;;;28.70;19.33;;;;;;;18.54;85.17;99246.53;5033319;28;20115;-78
2023/08/23 07:38:25;;;;;;;29.95;13.90;;;;;;;18.56;84.43;99257.06;5029465;28;20030;-80
2023/08/23 07:40:55;;;;;;;26.50;19.50;;;;;;;18.72;85.43;99255.75;5035039;28;20037;-80
2023/08/23 07:43:20;;;;;;;24.45;11.15;;;;;;;19.05;81.51;99257.44;5040629;28;20029;-79
2023/08/23 07:45:51;;;;;;;23.13;11.73;;;;;;;19.44;80.54;99265.25;5040368;28;20445;-79
2023/08/23 07:48:16;;;;;;;28.52;11.57;;;;;;;19.50;80.47;99269.50;5050367;28;20033;-78
2023/08/23 07:50:42;;;;;;;18.60;10.88;;;;;;;19.42;79.99;99262.03;5050740;28;20017;-79
2023/08/23 07:53:07;;;;;;;19.27;10.40;;;;;;;19.46;79.68;99276.63;5051747;28;20052;-78
2023/08/23 07:55:32;;;;;;;33.83;18.50;;;;;;;19.26;83.52;99252.53;5043038;28;20037;-79
2023/08/23 07:57:58;;;;;;;24.58;14.63;;;;;;;19.52;81.42;99261.88;5037514;28;20028;-78
2023/08/23 08:00:23;;;;;;;16.40;9.27;;;;;;;19.78;79.10;99264.94;5037071;28;20025;-78
2023/08/23 08:02:48;;;;;;;22.38;13.50;;;;;;;19.98;79.11;99265.41;5037907;28;20095;-80
2023/08/23 08:05:14;;;;;;;18.63;9.68;;;;;;;20.22;77.03;99273.38;5034786;28;20030;-79
2023/08/23 08:07:39;;;;;;;18.50;9.35;;;;;;;20.17;77.66;99268.00;5041466;28;20029;-80
2023/08/23 08:10:05;;;;;;;19.10;9.48;;;;;;;20.39;76.20;99262.72;5038775;28;20108;-78
2023/08/23 08:12:30;;;;;;;22.10;14.93;;;;;;;20.45;78.37;99266.13;5035788;28;20109;-79
2023/08/23 08:14:56;;;;;;;20.52;15.65;;;;;;;20.23;76.49;99261.41;5040980;28;20029;-81
2023/08/23 08:17:21;;;;;;;20.85;13.18;;;;;;;20.33;77.09;99257.72;5030847;28;20038;-79
2023/08/23 08:19:46;;;;;;;13.88;8.55;;;;;;;20.80;74.88;99255.34;5042921;28;20029;-80
2023/08/23 08:22:12;;;;;;;11.23;7.85;;;;;;;20.95;74.26;99259.59;5039082;28;20021;-80
2023/08/23 08:24:37;;;;;;;13.30;7.65;;;;;;;20.96;73.84;99261.22;5045426;28;20045;-79
2023/08/23 08:27:03;;;;;;;10.32;7.30;;;;;;;20.96;73.25;99261.22;5042646;28;20080;-79
2023/08/23 08:29:28;;;;;;;13.10;10.38;;;;;;;21.09;72.86;99257.69;5043391;28;20029;-81
2023/08/23 08:31:53;;;;;;;10.45;6.38;;;;;;;21.11;72.61;99262.81;5044506;28;20338;-80
2023/08/23 08:34:18;;;;;;;11.02;6.97;;;;;;;21.30;71.35;99264.25;5031546;28;20107;-80
2023/08/23 08:36:44;;;;;;;10.77;6.40;;;;;;;21.31;70.99;99267.78;5045648;28;20053;-79
2023/08/23 08:39:09;;;;;;;10.00;8.05;;;;;;;21.29;71.62;99270.81;5039895;28;20033;-82
2023/08/23 08:41:35;;;;;;;8.23;5.72;;;;;;;21.52;70.31;99268.88;5025713;28;20025;-82
2023/08/23 08:44:02;;;;;;;11.65;8.13;;;;;;;21.59;70.07;99270.06;5032766;28;20417;-78
2023/08/23 08:46:27;;;;;;;9.13;6.30;;;;;;;21.68;69.65;99275.53;5035714;28;20022;-80
2023/08/23 08:48:53;;;;;;;10.93;6.65;;;;;;;21.69;69.48;99276.34;5039046;28;20037;-80
2023/08/23 08:51:20;;;;;;;9.68;7.35;;;;;;;21.74;69.08;99282.44;5039252;28;20387;-79
2023/08/23 08:53:50;;;;;;;14.88;6.03;;;;;;;21.76;68.22;99274.78;5040072;28;20037;-79
2023/08/23 08:56:17;;;;;;;12.77;6.25;;;;;;;21.74;67.55;99277.00;5044885;28;20025;-80
2023/08/23 08:58:44;;;;;;;7.55;5.40;;;;;;;21.79;68.73;99271.44;5032933;28;20041;-81
2023/08/23 09:01:13;;;;;;;9.30;6.70;;;;;;;21.86;68.56;99280.00;5035224;28;20029;-81
2023/08/23 09:03:40;;;;;;;6.78;5.07;;;;;;;21.92;67.17;99292.34;5030016;28;20033;-80
2023/08/23 09:06:06;;;;;;;10.25;7.00;;;;;;;21.89;67.41;99281.28;5045363;28;20034;-79
2023/08/23 09:08:33;;;;;;;10.02;5.97;;;;;;;21.92;67.39;99280.66;5034090;28;20079;-81
2023/08/23 09:10:59;;;;;;;7.85;6.28;;;;;;;21.82;67.80;99280.91;5035230;28;20441;-79
2023/08/23 09:13:25;;;;;;;9.82;7.55;;;;;;;21.77;68.53;99279.13;5042498;28;20029;-82
2023/08/23 09:22:40;;;;;;;8.48;6.68;;;;;;;21.85;66.85;99264.78;5037821;28;20080;-80
2023/08/23 09:25:08;;;;;;;12.85;6.10;;;;;;;21.90;67.02;99274.72;5045980;28;20034;-80
2023/08/23 09:27:33;;;;;;;12.98;6.32;;;;;;;21.92;67.09;99275.22;5043617;28;20034;-81
2023/08/23 09:30:03;;;;;;;6.28;5.10;;;;;;;22.01;66.47;99274.16;5044562;28;20117;-80
2023/08/23 09:32:29;;;;;;;9.77;5.80;;;;;;;22.07;65.68;99277.53;5040894;28;20029;-81
2023/08/23 09:34:54;;;;;;;8.77;6.03;;;;;;;21.96;65.29;99276.19;5038768;28;20088;-80
2023/08/23 09:37:19;;;;;;;8.32;6.00;;;;;;;22.04;65.19;99273.50;5038051;28;20052;-80
2023/08/23 09:39:45;;;;;;;8.82;5.38;;;;;;;22.19;65.03;99278.53;5028906;28;20390;-79
2023/08/23 09:42:14;;;;;;;9.10;6.38;;;;;;;22.20;64.91;99276.63;5032318;28;20075;-82
2023/08/23 09:44:40;;;;;;;7.18;6.47;;;;;;;22.28;64.81;99279.38;5031401;28;20041;-82
2023/08/23 09:47:14;;;;;;;9.82;7.10;;;;;;;22.47;64.42;99275.59;5031208;28;20112;-82
2023/08/23 09:49:43;;;;;;;18.23;9.35;;;;;;;22.32;64.26;99274.13;5035540;28;20421;-79
2023/08/23 09:52:10;;;;;;;9.35;6.50;;;;;;;22.43;64.69;99280.09;5032584;28;20048;-79
2023/08/23 09:54:52;;;;;;;11.23;8.43;;;;;;;22.56;64.60;99273.72;5035903;28;20029;-81
2023/08/23 09:57:19;;;;;;;8.38;6.18;;;;;;;22.59;63.90;99279.34;5041234;28;20033;-79
2023/08/23 09:59:45;;;;;;;7.40;5.90;;;;;;;22.66;63.39;99279.69;5038427;28;20108;-81
2023/08/23 10:02:11;;;;;;;7.57;6.72;;;;;;;22.66;63.16;99279.69;5042421;28;20017;-83
2023/08/23 10:04:40;;;;;;;11.40;6.38;;;;;;;22.71;62.87;99263.22;5036735;28;20576;-81
2023/08/23 10:07:07;;;;;;;9.15;7.20;;;;;;;22.65;62.62;99272.63;5036950;28;20112;-82
2023/08/23 10:09:34;;;;;;;6.88;5.95;;;;;;;22.72;62.92;99269.44;5041922;28;20037;-81
2023/08/23 10:12:01;;;;;;;10.80;6.57;;;;;;;22.82;63.93;99256.34;5040633;28;20037;-80
2023/08/23 10:14:27;;;;;;;6.72;5.53;;;;;;;23.00;61.95;99263.41;5043040;28;20025;-81
2023/08/23 10:16:53;;;;;;;9.05;7.18;;;;;;;22.94;63.68;99252.97;5045824;28;20055;-80
2023/08/23 10:19:20;;;;;;;11.57;7.25;;;;;;;23.21;63.31;99257.31;5040557;28;20037;-80
2023/08/23 10:21:45;;;;;;;7.40;5.97;;;;;;;23.29;62.35;99248.34;5044642;28;20064;-81
2023/08/23 10:24:11;;;;;;;9.93;6.10;;;;;;;23.35;62.63;99253.31;5037800;28;20029;-81
2023/08/23 10:26:52;;;;;;;10.43;7.75;;;;;;;23.49;62.37;99253.16;5049738;28;20031;-80
2023/08/23 10:29:22;;;;;;;7.18;5.82;;;;;;;23.48;62.32;99244.16;5034336;28;20033;-82
2023/08/23 10:31:55;;;;;;;9.70;5.75;;;;;;;23.42;62.69;99250.91;5034263;28;20037;-80
2023/08/23 10:34:24;;;;;;;7.57;5.78;;;;;;;23.39;62.24;99246.13;5042211;28;20029;-81
2023/08/23 10:36:52;;;;;;;10.00;7.00;;;;;;;23.29;63.93;99238.25;5035913;28;20033;-79
2023/08/23 10:39:22;;;;;;;9.10;6.88;;;;;;;23.26;62.82;99233.47;5035160;28;20039;-81
2023/08/23 10:41:50;;;;;;;9.85;5.72;;;;;;;23.31;62.45;99236.00;5033638;28;20021;-81
2023/08/23 10:44:16;;;;;;;7.97;5.75;;;;;;;23.32;62.49;99231.34;5035348;28;20060;-81
2023/08/23 10:46:45;;;;;;;6.60;5.97;;;;;;;23.42;62.14;99220.94;5037040;28;20075;-81
2023/08/23 10:49:12;;;;;;;9.02;5.82;;;;;;;23.45;61.99;99225.75;5031696;28;20036;-82
2023/08/23 10:51:41;;;;;;;6.75;5.80;;;;;;;23.62;61.01;99224.91;5035075;28;20108;-81
2023/08/23 10:54:11;;;;;;;10.25;6.07;;;;;;;23.61;60.99;99229.56;5026791;28;20557;-79
2023/08/23 10:56:37;;;;;;;6.90;6.20;;;;;;;23.72;60.60;99238.22;5017944;28;20057;-81
2023/08/23 10:59:03;;;;;;;10.18;5.68;;;;;;;23.98;60.37;99238.13;5028515;28;20068;-82
2023/08/23 11:01:29;;;;;;;8.98;5.07;;;;;;;24.08;60.61;99245.97;5022511;28;20033;-83
2023/08/23 11:03:56;;;;;;;6.53;5.50;;;;;;;23.94;60.75;99246.13;5025184;28;20523;-81
2023/08/23 11:06:22;;;;;;;6.82;4.93;;;;;;;24.10;59.79;99246.44;5027199;28;20025;-81
2023/08/23 11:08:47;;;;;;;6.38;5.00;;;;;;;24.12;61.01;99230.53;5021608;28;20079;-80
2023/08/23 11:11:13;;;;;;;8.38;6.88;;;;;;;24.15;59.51;99232.63;5021601;28;20487;-80
2023/08/23 11:13:38;;;;;;;6.90;5.05;;;;;;;24.18;59.93;99237.44;5022137;28;20316;-79
2023/08/23 11:16:04;;;;;;;5.68;5.07;;;;;;;24.11;59.54;99242.59;5023821;28;20893;-80
2023/08/23 11:18:30;;;;;;;6.43;4.57;;;;;;;24.30;58.69;99232.06;5026200;28;20029;-81
2023/08/23 11:20:56;;;;;;;7.75;4.85;;;;;;;24.49;58.04;99237.91;5025279;28;20026;-79
2023/08/23 11:23:22;;;;;;;6.05;4.00;;;;;;;24.60;57.51;99233.66;5032099;28;20052;-81
2023/08/23 11:25:47;;;;;;;5.15;4.22;;;;;;;24.81;57.16;99231.78;5032916;28;20037;-78
2023/08/23 11:28:15;;;;;;;7.03;4.35;;;;;;;24.85;57.58;99231.91;5034770;28;20398;-81
2023/08/23 11:30:42;;;;;;;8.75;4.25;;;;;;;24.93;57.21;99233.78;5037748;28;20037;-81
2023/08/23 11:33:08;;;;;;;5.70;4.13;;;;;;;24.94;57.91;99236.19;5029917;28;20112;-82